sensor_id;sensor_type;location;lat;lon;timestamp;P1;durP1;ratioP1;P2;durP2;ratioP2
43152;SDS011;28756;49.064;9.290;2022-11-20T00:01:12;5.45;;;4.30;;
43152;SDS011;28756;49.064;9.290;2022-11-20T00:03:46;6.82;;;5.38;;
43152;SDS011;28756;49.064;9.290;2022-11-20T00:06:13;6.00;;;4.80;;
43152;SDS011;28756;49.064;9.290;2022-11-20T00:08:41;6.22;;;4.97;;
43152;SDS011;28756;49.064;9.290;2022-11-20T00:11:08;7.00;;;5.25;;
43152;SDS011;28756;49.064;9.290;2022-11-20T00:13:48;5.70;;;4.43;;
43152;SDS011;28756;49.064;9.290;2022-11-20T00:16:17;5.30;;;4.30;;
43152;SDS011;28756;49.064;9.290;2022-11-20T00:18:46;7.22;;;5.10;;
43152;SDS011;28756;49.064;9.290;2022-11-20T00:21:13;7.20;;;5.65;;
43152;SDS011;28756;49.064;9.290;2022-11-20T00:23:44;7.32;;;5.30;;
43152;SDS011;28756;49.064;9.290;2022-11-20T00:26:11;6.40;;;4.80;;
43152;SDS011;28756;49.064;9.290;2022-11-20T00:28:40;7.72;;;5.97;;
43152;SDS011;28756;49.064;9.290;2022-11-20T00:31:14;7.00;;;5.30;;
43152;SDS011;28756;49.064;9.290;2022-11-20T00:33:40;5.95;;;4.78;;
43152;SDS011;28756;49.064;9.290;2022-11-20T00:36:09;7.88;;;5.95;;
43152;SDS011;28756;49.064;9.290;2022-11-20T00:38:46;7.68;;;5.53;;
43152;SDS011;28756;49.064;9.290;2022-11-20T00:41:15;8.45;;;5.15;;
43152;SDS011;28756;49.064;9.290;2022-11-20T00:43:41;5.20;;;4.40;;
43152;SDS011;28756;49.064;9.290;2022-11-20T00:46:08;5.30;;;4.28;;
43152;SDS011;28756;49.064;9.290;2022-11-20T00:48:43;5.80;;;4.55;;
43152;SDS011;28756;49.064;9.290;2022-11-20T00:51:09;7.38;;;4.78;;
43152;SDS011;28756;49.064;9.290;2022-11-20T00:53:41;8.75;;;5.97;;
43152;SDS011;28756;49.064;9.290;2022-11-20T00:56:09;10.65;;;7.07;;
43152;SDS011;28756;49.064;9.290;2022-11-20T00:58:38;12.60;;;8.30;;
43152;SDS011;28756;49.064;9.290;2022-11-20T01:01:07;16.95;;;8.57;;
43152;SDS011;28756;49.064;9.290;2022-11-20T01:03:43;11.48;;;7.57;;
43152;SDS011;28756;49.064;9.290;2022-11-20T01:06:13;9.95;;;7.22;;
43152;SDS011;28756;49.064;9.290;2022-11-20T01:08:51;10.25;;;7.15;;
43152;SDS011;28756;49.064;9.290;2022-11-20T01:11:21;10.93;;;7.50;;
43152;SDS011;28756;49.064;9.290;2022-11-20T01:14:00;9.68;;;7.05;;
43152;SDS011;28756;49.064;9.290;2022-11-20T01:16:30;9.95;;;6.47;;
43152;SDS011;28756;49.064;9.290;2022-11-20T01:19:03;8.20;;;6.28;;
43152;SDS011;28756;49.064;9.290;2022-11-20T01:21:32;9.82;;;6.88;;
43152;SDS011;28756;49.064;9.290;2022-11-20T01:24:04;10.07;;;7.40;;
43152;SDS011;28756;49.064;9.290;2022-11-20T01:26:33;11.95;;;7.90;;
43152;SDS011;28756;49.064;9.290;2022-11-20T01:29:02;11.70;;;7.80;;
43152;SDS011;28756;49.064;9.290;2022-11-20T01:31:29;9.57;;;7.18;;
43152;SDS011;28756;49.064;9.290;2022-11-20T01:34:01;10.95;;;7.63;;
43152;SDS011;28756;49.064;9.290;2022-11-20T01:36:39;12.90;;;8.52;;
43152;SDS011;28756;49.064;9.290;2022-11-20T01:39:07;12.35;;;8.35;;
43152;SDS011;28756;49.064;9.290;2022-11-20T01:41:42;12.52;;;8.45;;
43152;SDS011;28756;49.064;9.290;2022-11-20T01:47:30;12.85;;;8.68;;
43152;SDS011;28756;49.064;9.290;2022-11-20T01:50:11;14.82;;;9.20;;
43152;SDS011;28756;49.064;9.290;2022-11-20T01:55:21;10.65;;;7.30;;
43152;SDS011;28756;49.064;9.290;2022-11-20T01:57:51;12.80;;;8.75;;
43152;SDS011;28756;49.064;9.290;2022-11-20T02:00:18;12.05;;;8.35;;
43152;SDS011;28756;49.064;9.290;2022-11-20T02:02:47;11.00;;;7.88;;
43152;SDS011;28756;49.064;9.290;2022-11-20T02:05:35;12.07;;;7.78;;
43152;SDS011;28756;49.064;9.290;2022-11-20T02:08:10;13.63;;;8.88;;
43152;SDS011;28756;49.064;9.290;2022-11-20T02:10:36;13.75;;;8.98;;
43152;SDS011;28756;49.064;9.290;2022-11-20T02:13:02;13.18;;;9.00;;
43152;SDS011;28756;49.064;9.290;2022-11-20T02:15:47;11.18;;;7.57;;
43152;SDS011;28756;49.064;9.290;2022-11-20T02:18:14;12.27;;;8.15;;
43152;SDS011;28756;49.064;9.290;2022-11-20T02:20:43;12.35;;;8.35;;
43152;SDS011;28756;49.064;9.290;2022-11-20T02:23:12;9.93;;;7.10;;
43152;SDS011;28756;49.064;9.290;2022-11-20T02:26:07;12.68;;;8.45;;
43152;SDS011;28756;49.064;9.290;2022-11-20T02:28:38;11.52;;;7.18;;
43152;SDS011;28756;49.064;9.290;2022-11-20T02:31:04;12.27;;;7.70;;
43152;SDS011;28756;49.064;9.290;2022-11-20T02:33:30;11.77;;;8.05;;
43152;SDS011;28756;49.064;9.290;2022-11-20T02:35:55;12.00;;;8.10;;
43152;SDS011;28756;49.064;9.290;2022-11-20T02:38:21;11.25;;;8.13;;
43152;SDS011;28756;49.064;9.290;2022-11-20T02:40:47;11.88;;;8.30;;
43152;SDS011;28756;49.064;9.290;2022-11-20T02:43:12;11.55;;;8.15;;
43152;SDS011;28756;49.064;9.290;2022-11-20T02:45:40;13.60;;;8.40;;
43152;SDS011;28756;49.064;9.290;2022-11-20T02:48:06;10.90;;;7.95;;
43152;SDS011;28756;49.064;9.290;2022-11-20T02:50:32;13.00;;;8.25;;
43152;SDS011;28756;49.064;9.290;2022-11-20T02:52:58;8.70;;;6.75;;
43152;SDS011;28756;49.064;9.290;2022-11-20T02:55:24;8.77;;;6.78;;
43152;SDS011;28756;49.064;9.290;2022-11-20T02:57:49;11.05;;;7.40;;
43152;SDS011;28756;49.064;9.290;2022-11-20T03:00:15;11.45;;;8.00;;
43152;SDS011;28756;49.064;9.290;2022-11-20T03:02:41;10.65;;;7.95;;
43152;SDS011;28756;49.064;9.290;2022-11-20T03:05:07;12.98;;;8.00;;
43152;SDS011;28756;49.064;9.290;2022-11-20T03:07:33;10.15;;;7.65;;
43152;SDS011;28756;49.064;9.290;2022-11-20T03:09:59;10.27;;;7.55;;
43152;SDS011;28756;49.064;9.290;2022-11-20T03:12:24;11.00;;;7.38;;
43152;SDS011;28756;49.064;9.290;2022-11-20T03:14:50;11.48;;;7.90;;
43152;SDS011;28756;49.064;9.290;2022-11-20T03:17:16;10.15;;;7.20;;
43152;SDS011;28756;49.064;9.290;2022-11-20T03:19:42;10.75;;;7.95;;
43152;SDS011;28756;49.064;9.290;2022-11-20T03:22:07;10.25;;;8.10;;
43152;SDS011;28756;49.064;9.290;2022-11-20T03:24:34;11.48;;;7.75;;
43152;SDS011;28756;49.064;9.290;2022-11-20T03:26:59;10.45;;;7.40;;
43152;SDS011;28756;49.064;9.290;2022-11-20T03:29:25;9.90;;;7.00;;
43152;SDS011;28756;49.064;9.290;2022-11-20T03:31:51;8.52;;;6.78;;
43152;SDS011;28756;49.064;9.290;2022-11-20T03:34:17;8.82;;;6.57;;
43152;SDS011;28756;49.064;9.290;2022-11-20T03:36:42;11.57;;;7.43;;
43152;SDS011;28756;49.064;9.290;2022-11-20T03:39:08;9.98;;;7.63;;
43152;SDS011;28756;49.064;9.290;2022-11-20T03:41:36;8.27;;;6.45;;
43152;SDS011;28756;49.064;9.290;2022-11-20T03:44:05;11.07;;;7.80;;
43152;SDS011;28756;49.064;9.290;2022-11-20T03:46:34;7.60;;;6.13;;
43152;SDS011;28756;49.064;9.290;2022-11-20T03:49:00;8.68;;;6.03;;
43152;SDS011;28756;49.064;9.290;2022-11-20T03:51:30;8.68;;;6.05;;
43152;SDS011;28756;49.064;9.290;2022-11-20T03:53:58;9.15;;;6.13;;
43152;SDS011;28756;49.064;9.290;2022-11-20T03:56:32;9.93;;;6.88;;
43152;SDS011;28756;49.064;9.290;2022-11-20T03:59:00;9.85;;;6.68;;
43152;SDS011;28756;49.064;9.290;2022-11-20T04:01:28;11.20;;;6.18;;
43152;SDS011;28756;49.064;9.290;2022-11-20T04:03:57;8.13;;;5.47;;
43152;SDS011;28756;49.064;9.290;2022-11-20T04:06:24;6.78;;;5.55;;
43152;SDS011;28756;49.064;9.290;2022-11-20T04:08:56;7.05;;;5.25;;
43152;SDS011;28756;49.064;9.290;2022-11-20T04:11:24;9.27;;;6.03;;
43152;SDS011;28756;49.064;9.290;2022-11-20T04:13:54;8.88;;;6.05;;
43152;SDS011;28756;49.064;9.290;2022-11-20T04:16:23;8.55;;;5.80;;
43152;SDS011;28756;49.064;9.290;2022-11-20T04:18:51;8.15;;;5.93;;
43152;SDS011;28756;49.064;9.290;2022-11-20T04:21:22;6.70;;;5.22;;
43152;SDS011;28756;49.064;9.290;2022-11-20T04:23:49;7.97;;;5.68;;
43152;SDS011;28756;49.064;9.290;2022-11-20T04:26:17;7.47;;;5.72;;
43152;SDS011;28756;49.064;9.290;2022-11-20T04:28:44;7.82;;;5.35;;
43152;SDS011;28756;49.064;9.290;2022-11-20T04:31:10;8.90;;;5.53;;
43152;SDS011;28756;49.064;9.290;2022-11-20T04:33:42;6.32;;;4.70;;
43152;SDS011;28756;49.064;9.290;2022-11-20T04:36:10;9.07;;;5.10;;
43152;SDS011;28756;49.064;9.290;2022-11-20T04:38:45;6.00;;;4.63;;
43152;SDS011;28756;49.064;9.290;2022-11-20T04:41:15;6.90;;;4.63;;
43152;SDS011;28756;49.064;9.290;2022-11-20T04:43:47;6.78;;;4.63;;
43152;SDS011;28756;49.064;9.290;2022-11-20T04:46:23;5.75;;;4.30;;
43152;SDS011;28756;49.064;9.290;2022-11-20T04:48:51;6.38;;;4.43;;
43152;SDS011;28756;49.064;9.290;2022-11-20T04:51:17;5.57;;;4.60;;
43152;SDS011;28756;49.064;9.290;2022-11-20T04:53:43;4.55;;;3.78;;
43152;SDS011;28756;49.064;9.290;2022-11-20T04:56:09;5.03;;;4.05;;
43152;SDS011;28756;49.064;9.290;2022-11-20T04:58:38;5.40;;;3.92;;
43152;SDS011;28756;49.064;9.290;2022-11-20T05:01:05;5.88;;;3.83;;
43152;SDS011;28756;49.064;9.290;2022-11-20T05:03:43;6.35;;;4.57;;
43152;SDS011;28756;49.064;9.290;2022-11-20T05:06:10;5.30;;;4.10;;
43152;SDS011;28756;49.064;9.290;2022-11-20T05:08:39;6.30;;;4.15;;
43152;SDS011;28756;49.064;9.290;2022-11-20T05:11:12;7.13;;;4.40;;
43152;SDS011;28756;49.064;9.290;2022-11-20T05:13:41;5.00;;;3.92;;
43152;SDS011;28756;49.064;9.290;2022-11-20T05:16:11;5.45;;;3.83;;
43152;SDS011;28756;49.064;9.290;2022-11-20T05:18:46;4.90;;;4.03;;
43152;SDS011;28756;49.064;9.290;2022-11-20T05:21:13;5.10;;;3.35;;
43152;SDS011;28756;49.064;9.290;2022-11-20T05:23:39;4.05;;;3.33;;
43152;SDS011;28756;49.064;9.290;2022-11-20T05:26:06;5.95;;;3.78;;
43152;SDS011;28756;49.064;9.290;2022-11-20T05:28:42;5.10;;;4.03;;
43152;SDS011;28756;49.064;9.290;2022-11-20T05:31:13;4.07;;;3.53;;
43152;SDS011;28756;49.064;9.290;2022-11-20T05:33:42;5.25;;;3.67;;
43152;SDS011;28756;49.064;9.290;2022-11-20T05:36:09;5.20;;;3.78;;
43152;SDS011;28756;49.064;9.290;2022-11-20T05:38:37;4.57;;;3.40;;
43152;SDS011;28756;49.064;9.290;2022-11-20T05:41:07;5.47;;;3.80;;
43152;SDS011;28756;49.064;9.290;2022-11-20T05:43:37;4.72;;;3.40;;
43152;SDS011;28756;49.064;9.290;2022-11-20T05:46:05;4.60;;;3.55;;
43152;SDS011;28756;49.064;9.290;2022-11-20T05:48:32;4.85;;;3.40;;
43152;SDS011;28756;49.064;9.290;2022-11-20T05:51:00;4.80;;;3.35;;
43152;SDS011;28756;49.064;9.290;2022-11-20T05:53:28;3.88;;;3.17;;
43152;SDS011;28756;49.064;9.290;2022-11-20T05:56:02;3.88;;;3.03;;
43152;SDS011;28756;49.064;9.290;2022-11-20T05:58:36;4.35;;;3.67;;
43152;SDS011;28756;49.064;9.290;2022-11-20T06:01:24;4.50;;;3.40;;
43152;SDS011;28756;49.064;9.290;2022-11-20T06:03:50;5.28;;;2.90;;
43152;SDS011;28756;49.064;9.290;2022-11-20T06:06:18;3.95;;;3.17;;
43152;SDS011;28756;49.064;9.290;2022-11-20T06:08:45;3.80;;;3.20;;
43152;SDS011;28756;49.064;9.290;2022-11-20T06:11:12;3.50;;;2.85;;
43152;SDS011;28756;49.064;9.290;2022-11-20T06:13:39;4.00;;;3.03;;
43152;SDS011;28756;49.064;9.290;2022-11-20T06:16:05;4.10;;;3.00;;
43152;SDS011;28756;49.064;9.290;2022-11-20T06:18:31;3.38;;;2.83;;
43152;SDS011;28756;49.064;9.290;2022-11-20T06:21:01;3.88;;;2.90;;
43152;SDS011;28756;49.064;9.290;2022-11-20T06:23:29;5.05;;;2.80;;
43152;SDS011;28756;49.064;9.290;2022-11-20T06:25:57;2.90;;;2.58;;
43152;SDS011;28756;49.064;9.290;2022-11-20T06:28:27;3.97;;;2.70;;
43152;SDS011;28756;49.064;9.290;2022-11-20T06:30:53;3.88;;;2.67;;
43152;SDS011;28756;49.064;9.290;2022-11-20T06:33:19;2.78;;;2.50;;
43152;SDS011;28756;49.064;9.290;2022-11-20T06:35:44;3.15;;;2.60;;
43152;SDS011;28756;49.064;9.290;2022-11-20T06:38:10;2.80;;;2.30;;
43152;SDS011;28756;49.064;9.290;2022-11-20T06:40:38;3.97;;;2.60;;
43152;SDS011;28756;49.064;9.290;2022-11-20T06:43:06;3.50;;;2.50;;
43152;SDS011;28756;49.064;9.290;2022-11-20T06:45:32;3.35;;;2.70;;
43152;SDS011;28756;49.064;9.290;2022-11-20T06:47:58;3.58;;;2.80;;
43152;SDS011;28756;49.064;9.290;2022-11-20T06:50:23;2.83;;;2.53;;
43152;SDS011;28756;49.064;9.290;2022-11-20T06:52:49;3.40;;;2.55;;
43152;SDS011;28756;49.064;9.290;2022-11-20T06:55:15;4.30;;;2.50;;
43152;SDS011;28756;49.064;9.290;2022-11-20T06:57:43;4.32;;;2.63;;
43152;SDS011;28756;49.064;9.290;2022-11-20T07:00:09;2.97;;;2.60;;
43152;SDS011;28756;49.064;9.290;2022-11-20T07:02:38;3.90;;;3.10;;
43152;SDS011;28756;49.064;9.290;2022-11-20T07:05:04;3.70;;;3.20;;
43152;SDS011;28756;49.064;9.290;2022-11-20T07:07:30;3.53;;;2.83;;
43152;SDS011;28756;49.064;9.290;2022-11-20T07:09:55;4.13;;;2.80;;
43152;SDS011;28756;49.064;9.290;2022-11-20T07:12:24;4.40;;;2.90;;
43152;SDS011;28756;49.064;9.290;2022-11-20T07:14:50;3.20;;;2.72;;
43152;SDS011;28756;49.064;9.290;2022-11-20T07:17:15;2.70;;;2.40;;
43152;SDS011;28756;49.064;9.290;2022-11-20T07:19:44;3.20;;;2.50;;
43152;SDS011;28756;49.064;9.290;2022-11-20T07:22:10;4.97;;;2.95;;
43152;SDS011;28756;49.064;9.290;2022-11-20T07:24:36;3.35;;;2.72;;
43152;SDS011;28756;49.064;9.290;2022-11-20T07:27:04;3.67;;;2.40;;
43152;SDS011;28756;49.064;9.290;2022-11-20T07:29:46;2.75;;;2.38;;
43152;SDS011;28756;49.064;9.290;2022-11-20T07:35:17;2.50;;;2.30;;
43152;SDS011;28756;49.064;9.290;2022-11-20T07:37:44;2.72;;;2.35;;
43152;SDS011;28756;49.064;9.290;2022-11-20T07:40:11;2.72;;;2.33;;
43152;SDS011;28756;49.064;9.290;2022-11-20T07:42:46;2.90;;;2.45;;
43152;SDS011;28756;49.064;9.290;2022-11-20T07:45:18;4.05;;;2.42;;
43152;SDS011;28756;49.064;9.290;2022-11-20T07:47:47;3.80;;;2.70;;
43152;SDS011;28756;49.064;9.290;2022-11-20T07:50:24;3.42;;;2.47;;
43152;SDS011;28756;49.064;9.290;2022-11-20T07:52:50;3.15;;;2.55;;
43152;SDS011;28756;49.064;9.290;2022-11-20T07:55:19;4.22;;;2.65;;
43152;SDS011;28756;49.064;9.290;2022-11-20T07:57:53;3.08;;;2.35;;
43152;SDS011;28756;49.064;9.290;2022-11-20T08:00:23;2.53;;;2.10;;
43152;SDS011;28756;49.064;9.290;2022-11-20T08:02:51;3.00;;;2.63;;
43152;SDS011;28756;49.064;9.290;2022-11-20T08:05:17;4.10;;;2.65;;
43152;SDS011;28756;49.064;9.290;2022-11-20T08:07:46;3.05;;;2.53;;
43152;SDS011;28756;49.064;9.290;2022-11-20T08:10:13;4.47;;;2.70;;
43152;SDS011;28756;49.064;9.290;2022-11-20T08:12:46;3.42;;;2.58;;
43152;SDS011;28756;49.064;9.290;2022-11-20T08:15:32;6.60;;;4.28;;
43152;SDS011;28756;49.064;9.290;2022-11-20T08:17:59;9.82;;;5.95;;
43152;SDS011;28756;49.064;9.290;2022-11-20T08:20:36;6.35;;;4.22;;
43152;SDS011;28756;49.064;9.290;2022-11-20T08:23:03;11.38;;;5.72;;
43152;SDS011;28756;49.064;9.290;2022-11-20T08:25:37;5.47;;;3.25;;
43152;SDS011;28756;49.064;9.290;2022-11-20T08:28:25;8.15;;;3.70;;
43152;SDS011;28756;49.064;9.290;2022-11-20T08:30:51;6.47;;;3.40;;
43152;SDS011;28756;49.064;9.290;2022-11-20T08:33:24;3.90;;;2.28;;
43152;SDS011;28756;49.064;9.290;2022-11-20T08:36:02;4.20;;;2.50;;
43152;SDS011;28756;49.064;9.290;2022-11-20T08:38:31;3.63;;;2.40;;
43152;SDS011;28756;49.064;9.290;2022-11-20T08:41:06;2.85;;;1.85;;
43152;SDS011;28756;49.064;9.290;2022-11-20T08:43:57;2.92;;;1.73;;
43152;SDS011;28756;49.064;9.290;2022-11-20T08:46:32;2.13;;;1.65;;
43152;SDS011;28756;49.064;9.290;2022-11-20T08:49:13;3.88;;;1.73;;
43152;SDS011;28756;49.064;9.290;2022-11-20T08:51:45;3.20;;;1.77;;
43152;SDS011;28756;49.064;9.290;2022-11-20T08:54:24;1.63;;;1.30;;
43152;SDS011;28756;49.064;9.290;2022-11-20T08:57:02;1.95;;;1.42;;
43152;SDS011;28756;49.064;9.290;2022-11-20T08:59:31;2.15;;;1.70;;
43152;SDS011;28756;49.064;9.290;2022-11-20T09:01:59;3.10;;;2.63;;
43152;SDS011;28756;49.064;9.290;2022-11-20T09:04:28;20.65;;;15.88;;
43152;SDS011;28756;49.064;9.290;2022-11-20T09:06:54;7.72;;;6.85;;
43152;SDS011;28756;49.064;9.290;2022-11-20T09:09:32;4.72;;;3.30;;
43152;SDS011;28756;49.064;9.290;2022-11-20T09:12:00;6.60;;;4.10;;
43152;SDS011;28756;49.064;9.290;2022-11-20T09:14:43;5.20;;;3.47;;
43152;SDS011;28756;49.064;9.290;2022-11-20T09:17:10;32.50;;;19.98;;
43152;SDS011;28756;49.064;9.290;2022-11-20T09:19:39;21.05;;;15.65;;
43152;SDS011;28756;49.064;9.290;2022-11-20T09:22:10;6.55;;;4.45;;
43152;SDS011;28756;49.064;9.290;2022-11-20T09:27:46;4.65;;;3.55;;
43152;SDS011;28756;49.064;9.290;2022-11-20T09:30:15;4.13;;;2.85;;
43152;SDS011;28756;49.064;9.290;2022-11-20T09:32:41;9.05;;;5.28;;
43152;SDS011;28756;49.064;9.290;2022-11-20T09:35:08;4.82;;;3.17;;
43152;SDS011;28756;49.064;9.290;2022-11-20T09:37:34;2.25;;;1.95;;
43152;SDS011;28756;49.064;9.290;2022-11-20T09:40:00;2.10;;;1.70;;
43152;SDS011;28756;49.064;9.290;2022-11-20T09:45:32;1.60;;;1.50;;
43152;SDS011;28756;49.064;9.290;2022-11-20T09:48:28;2.58;;;1.75;;
43152;SDS011;28756;49.064;9.290;2022-11-20T09:51:21;2.50;;;1.90;;
43152;SDS011;28756;49.064;9.290;2022-11-20T09:54:22;4.50;;;1.85;;
43152;SDS011;28756;49.064;9.290;2022-11-20T09:57:02;4.20;;;2.00;;
43152;SDS011;28756;49.064;9.290;2022-11-20T09:59:43;1.77;;;1.55;;
43152;SDS011;28756;49.064;9.290;2022-11-20T10:05:06;2.03;;;1.77;;
43152;SDS011;28756;49.064;9.290;2022-11-20T10:07:44;3.22;;;2.00;;
43152;SDS011;28756;49.064;9.290;2022-11-20T10:10:30;2.97;;;2.20;;
43152;SDS011;28756;49.064;9.290;2022-11-20T10:28:21;2.60;;;2.03;;
43152;SDS011;28756;49.064;9.290;2022-11-20T10:36:55;2.92;;;2.17;;
43152;SDS011;28756;49.064;9.290;2022-11-20T10:39:39;1.92;;;1.60;;
43152;SDS011;28756;49.064;9.290;2022-11-20T10:42:11;3.30;;;1.98;;
43152;SDS011;28756;49.064;9.290;2022-11-20T10:44:52;3.55;;;1.80;;
43152;SDS011;28756;49.064;9.290;2022-11-20T10:47:28;2.08;;;1.50;;
43152;SDS011;28756;49.064;9.290;2022-11-20T10:49:57;2.33;;;1.60;;
43152;SDS011;28756;49.064;9.290;2022-11-20T10:52:32;2.30;;;1.63;;
43152;SDS011;28756;49.064;9.290;2022-11-20T11:01:13;2.38;;;1.67;;
43152;SDS011;28756;49.064;9.290;2022-11-20T11:03:42;2.28;;;1.90;;
43152;SDS011;28756;49.064;9.290;2022-11-20T11:09:11;3.55;;;2.00;;
43152;SDS011;28756;49.064;9.290;2022-11-20T11:11:52;3.45;;;2.33;;
43152;SDS011;28756;49.064;9.290;2022-11-20T11:14:17;2.50;;;2.15;;
43152;SDS011;28756;49.064;9.290;2022-11-20T11:16:54;4.07;;;2.40;;
43152;SDS011;28756;49.064;9.290;2022-11-20T11:19:22;3.72;;;2.22;;
43152;SDS011;28756;49.064;9.290;2022-11-20T11:21:55;3.42;;;2.30;;
43152;SDS011;28756;49.064;9.290;2022-11-20T11:24:26;1.52;;;1.42;;
43152;SDS011;28756;49.064;9.290;2022-11-20T11:27:02;2.08;;;1.70;;
43152;SDS011;28756;49.064;9.290;2022-11-20T11:29:36;4.88;;;1.80;;
43152;SDS011;28756;49.064;9.290;2022-11-20T11:32:12;3.55;;;1.80;;
43152;SDS011;28756;49.064;9.290;2022-11-20T11:34:43;3.10;;;2.10;;
43152;SDS011;28756;49.064;9.290;2022-11-20T11:37:13;2.65;;;2.30;;
43152;SDS011;28756;49.064;9.290;2022-11-20T11:39:44;2.85;;;1.98;;
43152;SDS011;28756;49.064;9.290;2022-11-20T11:42:18;3.50;;;2.10;;
43152;SDS011;28756;49.064;9.290;2022-11-20T11:44:45;6.13;;;3.05;;
43152;SDS011;28756;49.064;9.290;2022-11-20T11:56:09;4.00;;;2.70;;
43152;SDS011;28756;49.064;9.290;2022-11-20T11:58:52;5.15;;;2.80;;
43152;SDS011;28756;49.064;9.290;2022-11-20T12:06:48;4.43;;;2.40;;
43152;SDS011;28756;49.064;9.290;2022-11-20T12:09:27;3.63;;;2.40;;
43152;SDS011;28756;49.064;9.290;2022-11-20T12:12:15;5.32;;;2.75;;
43152;SDS011;28756;49.064;9.290;2022-11-20T12:14:47;3.42;;;2.15;;
43152;SDS011;28756;49.064;9.290;2022-11-20T12:17:16;4.78;;;2.65;;
43152;SDS011;28756;49.064;9.290;2022-11-20T12:19:42;4.53;;;2.28;;
43152;SDS011;28756;49.064;9.290;2022-11-20T12:25:20;3.08;;;1.83;;
43152;SDS011;28756;49.064;9.290;2022-11-20T12:31:11;5.13;;;2.17;;
43152;SDS011;28756;49.064;9.290;2022-11-20T12:36:32;4.95;;;1.88;;
43152;SDS011;28756;49.064;9.290;2022-11-20T12:39:35;2.90;;;1.80;;
43152;SDS011;28756;49.064;9.290;2022-11-20T12:42:17;2.45;;;2.00;;
43152;SDS011;28756;49.064;9.290;2022-11-20T12:45:46;2.42;;;1.58;;
43152;SDS011;28756;49.064;9.290;2022-11-20T13:00:35;5.03;;;1.75;;
43152;SDS011;28756;49.064;9.290;2022-11-20T13:08:23;4.55;;;1.70;;
43152;SDS011;28756;49.064;9.290;2022-11-20T13:13:31;5.40;;;1.70;;
43152;SDS011;28756;49.064;9.290;2022-11-20T13:19:11;2.10;;;1.38;;
43152;SDS011;28756;49.064;9.290;2022-11-20T13:21:41;2.72;;;1.20;;
43152;SDS011;28756;49.064;9.290;2022-11-20T13:27:05;3.17;;;1.40;;
43152;SDS011;28756;49.064;9.290;2022-11-20T13:29:46;2.95;;;1.60;;
43152;SDS011;28756;49.064;9.290;2022-11-20T13:32:47;2.47;;;1.40;;
43152;SDS011;28756;49.064;9.290;2022-11-20T13:35:23;3.15;;;1.40;;
43152;SDS011;28756;49.064;9.290;2022-11-20T13:41:00;3.25;;;1.40;;
43152;SDS011;28756;49.064;9.290;2022-11-20T13:43:48;1.98;;;1.33;;
43152;SDS011;28756;49.064;9.290;2022-11-20T13:46:14;3.47;;;1.45;;
43152;SDS011;28756;49.064;9.290;2022-11-20T13:48:41;2.63;;;1.50;;
43152;SDS011;28756;49.064;9.290;2022-11-20T13:56:44;3.58;;;1.38;;
43152;SDS011;28756;49.064;9.290;2022-11-20T14:02:21;2.88;;;1.20;;
43152;SDS011;28756;49.064;9.290;2022-11-20T14:04:50;2.83;;;1.10;;
43152;SDS011;28756;49.064;9.290;2022-11-20T14:07:20;2.85;;;1.25;;
43152;SDS011;28756;49.064;9.290;2022-11-20T14:09:51;2.70;;;1.10;;
43152;SDS011;28756;49.064;9.290;2022-11-20T14:12:21;3.83;;;1.40;;
43152;SDS011;28756;49.064;9.290;2022-11-20T14:14:56;3.35;;;1.30;;
43152;SDS011;28756;49.064;9.290;2022-11-20T14:17:33;2.35;;;1.17;;
43152;SDS011;28756;49.064;9.290;2022-11-20T14:20:05;3.42;;;1.67;;
43152;SDS011;28756;49.064;9.290;2022-11-20T14:22:36;3.72;;;1.90;;
43152;SDS011;28756;49.064;9.290;2022-11-20T14:25:04;1.95;;;1.30;;
43152;SDS011;28756;49.064;9.290;2022-11-20T14:27:37;3.10;;;1.55;;
43152;SDS011;28756;49.064;9.290;2022-11-20T14:30:06;2.55;;;1.23;;
43152;SDS011;28756;49.064;9.290;2022-11-20T14:32:46;3.25;;;1.50;;
43152;SDS011;28756;49.064;9.290;2022-11-20T14:35:17;3.15;;;1.40;;
43152;SDS011;28756;49.064;9.290;2022-11-20T14:37:50;2.63;;;1.20;;
43152;SDS011;28756;49.064;9.290;2022-11-20T14:40:25;2.50;;;1.40;;
43152;SDS011;28756;49.064;9.290;2022-11-20T14:43:15;2.53;;;1.50;;
43152;SDS011;28756;49.064;9.290;2022-11-20T14:45:52;3.13;;;1.30;;
43152;SDS011;28756;49.064;9.290;2022-11-20T14:48:29;2.70;;;1.40;;
43152;SDS011;28756;49.064;9.290;2022-11-20T14:51:15;3.67;;;1.50;;
43152;SDS011;28756;49.064;9.290;2022-11-20T14:54:20;5.20;;;2.60;;
43152;SDS011;28756;49.064;9.290;2022-11-20T14:59:24;2.78;;;1.60;;
43152;SDS011;28756;49.064;9.290;2022-11-20T15:04:56;3.17;;;1.77;;
43152;SDS011;28756;49.064;9.290;2022-11-20T15:07:47;2.05;;;1.35;;
43152;SDS011;28756;49.064;9.290;2022-11-20T15:10:29;2.53;;;1.20;;
43152;SDS011;28756;49.064;9.290;2022-11-20T15:12:56;3.78;;;1.02;;
43152;SDS011;28756;49.064;9.290;2022-11-20T15:18:24;2.08;;;1.20;;
43152;SDS011;28756;49.064;9.290;2022-11-20T15:21:15;2.00;;;0.90;;
43152;SDS011;28756;49.064;9.290;2022-11-20T15:23:43;3.33;;;1.60;;
43152;SDS011;28756;49.064;9.290;2022-11-20T15:26:10;4.80;;;1.70;;
43152;SDS011;28756;49.064;9.290;2022-11-20T15:28:39;3.83;;;1.50;;
43152;SDS011;28756;49.064;9.290;2022-11-20T15:31:13;1.73;;;1.20;;
43152;SDS011;28756;49.064;9.290;2022-11-20T15:33:41;3.63;;;1.10;;
43152;SDS011;28756;49.064;9.290;2022-11-20T15:36:07;3.83;;;1.40;;
43152;SDS011;28756;49.064;9.290;2022-11-20T15:38:34;3.30;;;1.27;;
43152;SDS011;28756;49.064;9.290;2022-11-20T15:41:00;3.33;;;1.30;;
43152;SDS011;28756;49.064;9.290;2022-11-20T15:43:26;2.17;;;1.17;;
43152;SDS011;28756;49.064;9.290;2022-11-20T15:45:56;2.70;;;1.35;;
43152;SDS011;28756;49.064;9.290;2022-11-20T15:48:28;3.60;;;1.40;;
43152;SDS011;28756;49.064;9.290;2022-11-20T15:53:34;2.90;;;1.10;;
43152;SDS011;28756;49.064;9.290;2022-11-20T15:56:00;1.70;;;1.00;;
43152;SDS011;28756;49.064;9.290;2022-11-20T15:58:27;2.05;;;1.20;;
43152;SDS011;28756;49.064;9.290;2022-11-20T16:00:52;1.90;;;1.00;;
43152;SDS011;28756;49.064;9.290;2022-11-20T16:03:19;4.00;;;1.30;;
43152;SDS011;28756;49.064;9.290;2022-11-20T16:05:45;1.45;;;1.08;;
43152;SDS011;28756;49.064;9.290;2022-11-20T16:08:11;2.85;;;1.30;;
43152;SDS011;28756;49.064;9.290;2022-11-20T16:10:37;2.63;;;1.38;;
43152;SDS011;28756;49.064;9.290;2022-11-20T16:13:04;4.03;;;2.03;;
43152;SDS011;28756;49.064;9.290;2022-11-20T16:15:56;4.38;;;2.80;;
43152;SDS011;28756;49.064;9.290;2022-11-20T16:18:24;8.50;;;4.95;;
43152;SDS011;28756;49.064;9.290;2022-11-20T16:20:53;7.78;;;4.63;;
43152;SDS011;28756;49.064;9.290;2022-11-20T16:23:20;7.97;;;4.63;;
43152;SDS011;28756;49.064;9.290;2022-11-20T16:25:46;10.40;;;6.82;;
43152;SDS011;28756;49.064;9.290;2022-11-20T16:28:12;7.80;;;4.97;;
43152;SDS011;28756;49.064;9.290;2022-11-20T16:30:39;5.55;;;3.85;;
43152;SDS011;28756;49.064;9.290;2022-11-20T16:33:08;4.40;;;3.03;;
43152;SDS011;28756;49.064;9.290;2022-11-20T16:35:37;3.50;;;2.58;;
43152;SDS011;28756;49.064;9.290;2022-11-20T16:38:03;7.00;;;3.60;;
43152;SDS011;28756;49.064;9.290;2022-11-20T16:40:29;5.00;;;2.60;;
43152;SDS011;28756;49.064;9.290;2022-11-20T16:42:54;5.10;;;2.88;;
43152;SDS011;28756;49.064;9.290;2022-11-20T16:45:21;6.43;;;3.28;;
43152;SDS011;28756;49.064;9.290;2022-11-20T16:47:48;5.97;;;3.70;;
43152;SDS011;28756;49.064;9.290;2022-11-20T16:50:14;11.25;;;5.50;;
43152;SDS011;28756;49.064;9.290;2022-11-20T16:52:40;11.57;;;6.00;;
43152;SDS011;28756;49.064;9.290;2022-11-20T16:55:06;11.00;;;5.32;;
43152;SDS011;28756;49.064;9.290;2022-11-20T16:57:32;9.65;;;5.50;;
43152;SDS011;28756;49.064;9.290;2022-11-20T16:59:59;10.40;;;5.70;;
43152;SDS011;28756;49.064;9.290;2022-11-20T17:02:25;7.45;;;4.60;;
43152;SDS011;28756;49.064;9.290;2022-11-20T17:04:51;5.90;;;4.78;;
43152;SDS011;28756;49.064;9.290;2022-11-20T17:07:17;6.68;;;4.00;;
43152;SDS011;28756;49.064;9.290;2022-11-20T17:09:43;4.93;;;3.67;;